Time;durP1;ratioP1;P1;durP2;ratioP2;P2;SDS_P1;SDS_P2;PMS_P1;PMS_P2;Temp;Humidity;BMP_temperature;BMP_pressure;BME280_temperature;BME280_humidity;BME280_pressure;Samples;Min_cycle;Max_cycle;Signal;HPM_P1;HPM_P2
2023/10/13 00:00:34;;;;;;;0.80;0.40;;;;;;;-143.84;74.36;45130.94;5089844;28;20435;-56
2023/10/13 00:03:07;;;;;;;0.90;0.57;;;;;;;-143.84;73.81;45087.16;5084801;28;20516;-56
2023/10/13 00:05:41;;;;;;;0.90;0.50;;;;;;;-143.84;73.36;45094.78;5085251;28;20527;-56
2023/10/13 00:08:13;;;;;;;0.80;0.60;;;;;;;-143.84;73.42;45090.97;5091347;28;20459;-56
2023/10/13 00:10:41;;;;;;;0.80;0.40;;;;;;;-143.84;73.31;45092.88;5090872;28;20458;-56
2023/10/13 00:13:12;;;;;;;0.80;0.40;;;;;;;-143.84;73.34;45090.97;5091561;28;20450;-56
2023/10/13 00:15:45;;;;;;;1.20;0.60;;;;;;;-143.84;73.03;45106.19;5089085;28;20452;-56
2023/10/13 00:18:14;;;;;;;1.30;0.43;;;;;;;-143.84;72.56;45062.41;5091294;28;20486;-56
2023/10/13 00:20:49;;;;;;;0.80;0.37;;;;;;;-143.84;72.50;45060.50;5091371;28;21228;-56
2023/10/13 00:23:20;;;;;;;0.80;0.50;;;;;;;-143.84;72.28;45081.44;5097796;28;20918;-56
2023/10/13 00:25:56;;;;;;;0.80;0.50;;;;;;;-143.84;71.50;45073.81;5090040;28;20480;-56
2023/10/13 00:28:26;;;;;;;0.80;0.40;;;;;;;-143.84;70.94;45092.88;5090426;28;20455;-56
2023/10/13 00:31:00;;;;;;;0.80;0.40;;;;;;;-143.84;70.85;45077.63;5090851;28;20428;-56
2023/10/13 00:33:28;;;;;;;0.80;0.40;;;;;;;-143.84;70.49;45087.16;5089040;28;20488;-56
2023/10/13 00:35:57;;;;;;;0.80;0.40;;;;;;;-143.84;70.32;45083.34;5090310;28;20973;-56
2023/10/13 00:38:27;;;;;;;0.80;0.40;;;;;;;-143.84;70.29;45110.00;5090141;28;20567;-56
2023/10/13 00:40:54;;;;;;;0.90;0.50;;;;;;;-143.84;70.02;45098.56;5090132;28;20437;-56
2023/10/13 00:43:34;;;;;;;0.80;0.50;;;;;;;-143.84;69.40;45066.22;5090376;28;20450;-56
2023/10/13 00:46:12;;;;;;;0.80;0.40;;;;;;;-143.84;69.14;45090.97;5087107;28;20515;-56
2023/10/13 00:48:51;;;;;;;0.80;0.40;;;;;;;-143.84;68.84;45090.97;5081821;28;20461;-56
2023/10/13 00:51:32;;;;;;;1.17;0.77;;;;;;;-143.84;68.58;45083.34;5091206;28;20456;-56
2023/10/13 00:54:00;;;;;;;0.80;0.40;;;;;;;-143.84;68.76;45089.06;5092737;28;20449;-56
2023/10/13 00:56:30;;;;;;;0.80;0.40;;;;;;;-143.84;69.11;45079.53;5090029;28;20454;-56
2023/10/13 00:59:02;;;;;;;0.80;0.40;;;;;;;-143.84;69.26;45090.97;5070058;28;20485;-56
2023/10/13 01:01:32;;;;;;;1.07;0.73;;;;;;;-143.84;69.12;45092.88;5071028;28;20953;-56
2023/10/13 01:03:59;;;;;;;0.80;0.40;;;;;;;-143.84;69.48;45089.06;5090437;28;20464;-56
2023/10/13 01:06:29;;;;;;;0.90;0.40;;;;;;;-143.84;69.43;45106.19;5090220;28;20457;-56
2023/10/13 01:09:10;;;;;;;0.80;0.40;;;;;;;-143.84;69.47;45094.78;5090566;28;20439;-56
2023/10/13 01:11:37;;;;;;;0.90;0.50;;;;;;;-143.84;69.44;45087.16;5090248;28;20450;-56
2023/10/13 01:14:05;;;;;;;0.80;0.40;;;;;;;-143.84;69.35;45094.78;5090290;28;20434;-56
2023/10/13 01:16:32;;;;;;;0.80;0.50;;;;;;;-143.84;69.17;45098.56;5087430;28;20456;-56
2023/10/13 01:18:59;;;;;;;0.80;0.40;;;;;;;-143.84;68.90;45079.53;5087792;28;20480;-56
2023/10/13 01:21:29;;;;;;;1.63;0.80;;;;;;;-143.84;68.99;45062.41;5090941;28;20458;-56
2023/10/13 01:23:56;;;;;;;0.83;0.50;;;;;;;-143.84;69.46;45079.53;5092295;28;20453;-56
2023/10/13 01:26:26;;;;;;;0.80;0.40;;;;;;;-143.84;69.92;45110.00;5085247;28;20470;-56
2023/10/13 01:28:56;;;;;;;0.90;0.60;;;;;;;-143.84;70.28;45081.44;5089839;28;20460;-56
2023/10/13 01:31:28;;;;;;;0.90;0.70;;;;;;;-143.84;70.10;45081.44;5090390;28;20452;-56
2023/10/13 01:33:58;;;;;;;1.10;0.70;;;;;;;-143.84;69.86;45096.66;5088065;28;21074;-56
2023/10/13 01:36:26;;;;;;;0.80;0.50;;;;;;;-143.84;69.46;45098.56;5090196;28;20520;-56
2023/10/13 01:38:53;;;;;;;0.80;0.40;;;;;;;-143.84;69.46;45081.44;5089914;28;20487;-56
2023/10/13 01:41:22;;;;;;;1.13;0.40;;;;;;;-143.84;69.09;45054.78;5096830;28;20921;-56
2023/10/13 01:43:48;;;;;;;0.90;0.60;;;;;;;-143.84;68.98;45073.81;5089706;28;20508;-56
2023/10/13 01:46:19;;;;;;;3.43;0.60;;;;;;;-143.84;68.65;45096.66;5089892;28;20547;-56
2023/10/13 01:48:46;;;;;;;1.13;0.60;;;;;;;-143.84;68.40;45110.00;5087573;28;20468;-56
2023/10/13 01:51:13;;;;;;;1.00;0.70;;;;;;;-143.84;68.09;45102.38;5089752;28;20818;-56
2023/10/13 01:53:41;;;;;;;1.67;0.60;;;;;;;-143.84;67.87;45098.56;5089702;28;20958;-56
2023/10/13 01:56:11;;;;;;;0.80;0.50;;;;;;;-143.84;67.49;45083.34;5096854;28;20540;-56
2023/10/13 01:58:42;;;;;;;0.83;0.50;;;;;;;-143.84;67.31;45079.53;5089753;28;21043;-56
2023/10/13 02:01:10;;;;;;;0.80;0.40;;;;;;;-143.84;67.11;45106.19;5087162;28;20444;-56
2023/10/13 02:03:45;;;;;;;0.80;0.40;;;;;;;-143.84;66.64;45056.69;5090569;28;20515;-56
2023/10/13 02:06:17;;;;;;;0.80;0.40;;;;;;;-143.84;65.68;45102.38;5091963;28;20949;-56
2023/10/13 02:08:47;;;;;;;0.80;0.40;;;;;;;-143.84;65.18;45075.72;5093389;28;20459;-56
2023/10/13 02:11:18;;;;;;;0.80;0.40;;;;;;;-143.84;64.70;45077.63;5089964;28;20856;-56
2023/10/13 02:13:50;;;;;;;11.77;0.90;;;;;;;-143.84;64.48;45102.38;5089814;28;20521;-56
2023/10/13 02:16:21;;;;;;;0.97;0.70;;;;;;;-143.84;64.27;45098.56;5087974;28;20461;-56
2023/10/13 02:18:52;;;;;;;0.90;0.50;;;;;;;-143.84;64.46;45098.56;5093508;28;20483;-56
2023/10/13 02:21:19;;;;;;;0.80;0.40;;;;;;;-143.84;64.52;45102.38;5093499;28;20500;-56
2023/10/13 02:23:45;;;;;;;0.90;0.50;;;;;;;-143.84;63.83;45089.06;5100489;28;20440;-56
2023/10/13 02:26:15;;;;;;;1.13;0.57;;;;;;;-143.84;63.81;45092.88;5090391;28;20457;-56
2023/10/13 02:28:41;;;;;;;0.80;0.47;;;;;;;-143.84;63.76;45102.38;5094253;28;20801;-56
2023/10/13 02:31:11;;;;;;;1.33;0.60;;;;;;;-143.84;64.25;45096.66;5094697;28;20586;-56
2023/10/13 02:33:44;;;;;;;0.80;0.50;;;;;;;-143.84;63.80;45094.78;5098429;28;20500;-56
2023/10/13 02:36:12;;;;;;;0.80;0.40;;;;;;;-143.84;63.54;45081.44;5093204;28;20543;-56
2023/10/13 02:38:45;;;;;;;0.90;0.50;;;;;;;-143.84;63.23;45096.66;5092791;28;20474;-56
2023/10/13 02:41:19;;;;;;;1.40;1.07;;;;;;;-143.84;62.63;45085.25;5093270;28;20442;-56
2023/10/13 02:43:45;;;;;;;0.80;0.40;;;;;;;-143.84;62.63;45089.06;5093347;28;20971;-56
2023/10/13 02:46:15;;;;;;;2.10;1.90;;;;;;;-143.84;62.57;45071.91;5093458;28;20592;-56
2023/10/13 02:48:45;;;;;;;0.80;0.50;;;;;;;-143.84;62.78;45087.16;5090921;28;21430;-56
2023/10/13 02:51:25;;;;;;;0.83;0.43;;;;;;;-143.84;62.75;45102.38;5085313;28;20452;-56
2023/10/13 02:53:52;;;;;;;0.80;0.40;;;;;;;-143.84;62.86;45079.53;5092802;28;20463;-56
2023/10/13 02:56:21;;;;;;;0.80;0.40;;;;;;;-143.84;62.95;45073.81;5097197;28;20519;-56
2023/10/13 02:58:53;;;;;;;0.80;0.43;;;;;;;-143.84;62.89;45075.72;5093774;28;20576;-56
2023/10/13 03:01:27;;;;;;;0.80;0.53;;;;;;;-143.84;63.06;45090.97;5095544;28;20554;-56
2023/10/13 03:03:56;;;;;;;0.80;0.40;;;;;;;-143.84;62.87;45089.06;5094976;28;20528;-56
2023/10/13 03:06:32;;;;;;;0.80;0.40;;;;;;;-143.84;62.63;45085.25;5092585;28;21142;-56
2023/10/13 03:09:04;;;;;;;0.80;0.50;;;;;;;-143.84;62.07;45081.44;5092667;28;20539;-56
2023/10/13 03:11:33;;;;;;;0.90;0.70;;;;;;;-143.84;61.57;45096.66;5092785;28;20453;-56
2023/10/13 03:14:06;;;;;;;0.80;0.57;;;;;;;-143.84;60.64;45108.09;5092390;28;20442;-56
2023/10/13 03:16:34;;;;;;;0.80;0.40;;;;;;;-143.84;60.58;45071.91;5092148;28;20483;-56
2023/10/13 03:19:07;;;;;;;0.90;0.60;;;;;;;-143.84;59.61;45102.38;5089443;28;20465;-56
2023/10/13 03:21:36;;;;;;;0.90;0.60;;;;;;;-143.84;59.70;45085.25;5085341;28;20472;-56
2023/10/13 03:24:06;;;;;;;0.80;0.40;;;;;;;-143.84;58.58;45083.34;5092251;28;20532;-56
2023/10/13 03:26:37;;;;;;;0.80;0.47;;;;;;;-143.84;58.02;45108.09;5081547;28;20470;-55
2023/10/13 03:29:13;;;;;;;0.90;0.50;;;;;;;-143.84;58.22;45068.13;5092620;28;20528;-56
2023/10/13 03:31:45;;;;;;;0.90;0.50;;;;;;;-143.84;58.33;45100.47;5097344;28;20451;-56
2023/10/13 03:34:12;;;;;;;1.10;1.00;;;;;;;-143.84;57.94;45077.63;5093195;28;20495;-56
2023/10/13 03:36:58;;;;;;;0.80;0.40;;;;;;;-143.84;57.85;45083.34;5091863;28;20444;-56
2023/10/13 03:39:29;;;;;;;0.80;0.40;;;;;;;-143.84;57.53;45089.06;5090527;28;20476;-55
2023/10/13 03:42:00;;;;;;;0.80;0.40;;;;;;;-143.84;56.20;45094.78;5091549;28;20451;-55
2023/10/13 03:44:30;;;;;;;1.87;1.73;;;;;;;-143.84;55.48;45090.97;5092148;28;20515;-56
2023/10/13 03:47:17;;;;;;;0.80;0.40;;;;;;;-143.84;53.59;45085.25;5092076;28;20810;-56
2023/10/13 03:49:45;;;;;;;0.80;0.50;;;;;;;-143.84;53.72;45068.13;5091796;28;20938;-56
2023/10/13 03:52:13;;;;;;;0.90;0.60;;;;;;;-143.84;52.66;45075.72;5091765;28;20954;-56
2023/10/13 03:54:41;;;;;;;0.80;0.40;;;;;;;-143.84;52.87;45089.06;5091580;28;20468;-56
2023/10/13 03:57:11;;;;;;;1.93;0.60;;;;;;;-143.84;51.87;45068.13;5090709;28;20437;-56
2023/10/13 03:59:39;;;;;;;0.80;0.43;;;;;;;-143.84;51.93;45098.56;5091794;28;20841;-56
2023/10/13 04:02:18;;;;;;;0.80;0.50;;;;;;;-143.84;51.33;45089.06;5091352;28;20437;-56
2023/10/13 04:04:49;;;;;;;1.00;0.60;;;;;;;-143.84;51.16;45094.78;5091529;28;20895;-56
2023/10/13 04:15:36;;;;;;;0.80;0.50;;;;;;;-143.84;50.01;45081.44;5068343;28;20449;-56
2023/10/13 04:18:18;;;;;;;0.80;0.40;;;;;;;-143.84;50.33;45073.81;5091660;28;20544;-56
2023/10/13 04:20:46;;;;;;;0.80;0.40;;;;;;;-143.84;50.03;45081.44;5090362;28;20531;-56
2023/10/13 04:23:19;;;;;;;0.80;0.53;;;;;;;-143.84;50.01;45081.44;5091427;28;20440;-56
2023/10/13 04:28:37;;;;;;;0.80;0.40;;;;;;;-143.84;50.32;45090.97;5090299;28;20444;-55
2023/10/13 04:31:24;;;;;;;0.80;0.40;;;;;;;-143.84;49.79;45079.53;5090824;28;20532;-55
2023/10/13 04:33:52;;;;;;;0.80;0.50;;;;;;;-143.84;50.09;45096.66;5090283;28;20485;-56
2023/10/13 04:36:36;;;;;;;0.83;0.43;;;;;;;-143.84;49.96;45089.06;5090547;28;20448;-55
2023/10/13 04:39:16;;;;;;;0.80;0.40;;;;;;;-143.84;50.14;45077.63;5087432;28;20461;-56
2023/10/13 04:41:57;;;;;;;0.80;0.50;;;;;;;-143.84;50.25;45070.00;5087537;28;20452;-56
2023/10/13 04:47:09;;;;;;;0.80;0.40;;;;;;;-143.84;50.63;45102.38;5090203;28;20443;-56
2023/10/13 04:53:01;;;;;;;0.80;0.40;;;;;;;-143.84;49.57;45094.78;5087183;28;21009;-56
2023/10/13 04:55:43;;;;;;;1.10;0.60;;;;;;;-143.84;49.52;45092.88;5090313;28;20955;-56
2023/10/13 04:58:35;;;;;;;0.80;0.43;;;;;;;-143.84;49.71;45079.53;5090603;28;20528;-56
2023/10/13 05:01:39;;;;;;;1.00;0.70;;;;;;;-143.84;50.11;45081.44;5090324;28;20580;-56
2023/10/13 05:04:30;;;;;;;0.80;0.50;;;;;;;-143.84;49.98;45094.78;5090192;28;20581;-56
2023/10/13 05:45:39;;;;;;;0.90;0.60;;;;;;;-143.84;44.97;45049.06;5089612;28;20805;-56
2023/10/13 05:48:12;;;;;;;0.90;0.47;;;;;;;-143.84;43.52;45037.66;5089537;28;20479;-56
2023/10/13 06:29:09;;;;;;;2.50;1.03;;;;;;;-143.84;37.70;45007.19;5093682;28;20430;-56
2023/10/13 06:31:37;;;;;;;0.80;0.40;;;;;;;-143.84;37.64;45007.19;5093603;28;20796;-56
2023/10/13 06:34:04;;;;;;;0.90;0.50;;;;;;;-143.84;38.75;45001.47;5093068;28;20484;-56
2023/10/13 06:36:33;;;;;;;0.83;0.50;;;;;;;-143.84;38.43;45007.19;5093328;28;20428;-56
2023/10/13 06:41:41;;;;;;;0.80;0.40;;;;;;;-143.84;38.75;44997.66;5092729;28;20447;-56
2023/10/13 06:44:15;;;;;;;1.20;0.50;;;;;;;-143.84;37.26;45014.78;5092994;28;20443;-56
2023/10/13 06:46:44;;;;;;;0.90;0.53;;;;;;;-143.84;37.17;44991.94;5093206;28;20949;-56
2023/10/13 06:49:13;;;;;;;0.87;0.60;;;;;;;-143.84;37.70;44988.13;5093389;28;20496;-56
2023/10/13 06:51:40;;;;;;;0.90;0.50;;;;;;;-143.84;37.18;45003.38;5093011;28;20881;-56
2023/10/13 06:54:18;;;;;;;0.80;0.50;;;;;;;-143.84;36.97;45001.47;5093265;28;20463;-56
2023/10/13 06:56:45;;;;;;;1.40;0.80;;;;;;;-143.84;37.43;45003.38;5093016;28;20435;-56
2023/10/13 06:59:14;;;;;;;0.80;0.40;;;;;;;-143.84;38.13;44999.56;5092709;28;20450;-56
2023/10/13 07:01:42;;;;;;;1.73;0.77;;;;;;;-143.84;38.62;45014.78;5092869;28;20519;-56
2023/10/13 07:04:14;;;;;;;2.80;1.43;;;;;;;-143.84;38.74;45001.47;5092271;28;20431;-56
2023/10/13 07:06:48;;;;;;;1.00;0.70;;;;;;;-143.84;39.60;44999.56;5093110;28;21404;-56
2023/10/13 07:09:39;;;;;;;0.90;0.73;;;;;;;-143.84;38.51;45003.38;5092749;28;20440;-56
2023/10/13 07:12:06;;;;;;;1.13;0.90;;;;;;;-143.84;38.00;44995.75;5092650;28;20435;-56
2023/10/13 07:14:36;;;;;;;1.03;0.93;;;;;;;-143.84;38.10;44971.00;5092307;28;20443;-56
2023/10/13 07:17:06;;;;;;;1.20;1.10;;;;;;;-143.84;37.90;44972.91;5092678;28;20531;-56
2023/10/13 07:19:33;;;;;;;1.53;1.13;;;;;;;-143.84;38.51;44993.84;5092663;28;20526;-56
2023/10/13 07:22:18;;;;;;;1.57;0.90;;;;;;;-143.84;37.67;44986.22;5092566;28;20468;-56
2023/10/13 07:24:48;;;;;;;1.03;0.90;;;;;;;-143.84;38.43;44991.94;5092341;28;20443;-56
2023/10/13 07:27:22;;;;;;;1.13;1.03;;;;;;;-143.84;36.99;44984.31;5092441;28;20463;-56
2023/10/13 07:30:05;;;;;;;1.40;1.30;;;;;;;-143.84;37.09;44963.38;5092658;28;20439;-56
2023/10/13 07:32:33;;;;;;;1.73;1.57;;;;;;;-143.84;37.47;44991.94;5092541;28;20444;-56
2023/10/13 07:35:11;;;;;;;1.30;1.10;;;;;;;-143.84;36.57;44997.66;5092175;28;20946;-56
2023/10/13 07:37:41;;;;;;;2.87;1.57;;;;;;;-143.84;36.90;44967.19;5091926;28;20439;-56
2023/10/13 07:40:39;;;;;;;1.67;1.57;;;;;;;-143.84;37.01;44991.94;5091980;28;20507;-56
2023/10/13 07:43:00;;;;;;;1.63;1.30;;;;;;;-143.84;36.89;44971.00;5091665;28;20862;-56
2023/10/13 07:45:35;;;;;;;2.23;1.93;;;;;;;-143.84;35.85;44993.84;5092107;28;20497;-56
2023/10/13 07:48:07;;;;;;;2.70;1.40;;;;;;;-143.84;36.84;44982.41;5092034;28;20451;-56
2023/10/13 07:50:35;;;;;;;1.47;1.37;;;;;;;-143.84;36.87;44995.75;5092016;28;20509;-56
2023/10/13 07:53:14;;;;;;;4.60;2.17;;;;;;;-143.84;36.74;44999.56;5091726;28;20440;-56
2023/10/13 07:55:41;;;;;;;3.07;1.80;;;;;;;-143.84;36.30;44974.81;5091926;28;20440;-56
2023/10/13 07:58:08;;;;;;;1.67;1.57;;;;;;;-143.84;36.72;44980.53;5091783;28;20489;-56
2023/10/13 08:00:46;;;;;;;2.37;1.30;;;;;;;-143.84;37.18;45005.28;5091748;28;20548;-56
2023/10/13 08:03:31;;;;;;;1.10;0.90;;;;;;;-143.84;36.42;44980.53;5091332;28;20448;-56
2023/10/13 08:06:04;;;;;;;1.97;1.27;;;;;;;-143.84;35.88;44993.84;5091699;28;20519;-56
2023/10/13 08:08:37;;;;;;;1.00;0.70;;;;;;;-143.84;34.73;44986.22;5091433;28;20468;-56
2023/10/13 08:11:11;;;;;;;2.07;0.90;;;;;;;-143.84;34.86;44951.97;5091485;28;20452;-56
2023/10/13 08:13:46;;;;;;;0.90;0.50;;;;;;;-143.84;34.21;44995.75;5090899;28;20440;-56
2023/10/13 08:16:20;;;;;;;0.90;0.57;;;;;;;-143.84;34.85;44993.84;5090974;28;20447;-56
2023/10/13 08:18:49;;;;;;;1.20;0.90;;;;;;;-143.84;34.22;44984.31;5091478;28;20535;-56
2023/10/13 08:21:19;;;;;;;2.03;0.80;;;;;;;-143.84;36.34;44986.22;5091138;28;20483;-56
2023/10/13 08:24:05;;;;;;;0.90;0.50;;;;;;;-143.84;34.30;44972.91;5091047;28;20452;-56
2023/10/13 08:32:19;;;;;;;0.90;0.47;;;;;;;-143.84;33.14;44980.53;5091062;28;20431;-56
2023/10/13 08:35:10;;;;;;;1.03;0.40;;;;;;;-143.84;33.27;44963.38;5090771;28;20476;-56
2023/10/13 08:37:59;;;;;;;1.07;0.50;;;;;;;-143.84;33.08;44971.00;5090814;28;20469;-56
2023/10/13 08:43:40;;;;;;;1.00;0.60;;;;;;;-143.84;33.03;44950.06;5047901;28;20434;-56
2023/10/13 08:46:09;;;;;;;0.80;0.50;;;;;;;-143.84;33.01;44961.47;5084627;28;20531;-56
2023/10/13 08:48:38;;;;;;;0.90;0.70;;;;;;;-143.84;32.98;44950.06;5090144;28;20448;-56
2023/10/13 08:51:11;;;;;;;0.90;0.50;;;;;;;-143.84;32.81;44986.22;5090491;28;20497;-56
2023/10/13 08:53:52;;;;;;;0.90;0.50;;;;;;;-143.84;33.08;44965.28;5090464;28;20435;-56
2023/10/13 08:56:32;;;;;;;0.90;0.47;;;;;;;-143.84;32.78;44991.94;5090168;28;20855;-56
2023/10/13 08:59:09;;;;;;;0.80;0.50;;;;;;;-143.84;32.89;44961.47;5090145;28;20447;-56
2023/10/13 09:01:45;;;;;;;1.10;0.80;;;;;;;-143.84;32.18;44946.25;5090113;28;20487;-56
2023/10/13 09:04:27;;;;;;;1.53;0.83;;;;;;;-143.84;32.15;44946.25;5090094;28;20460;-56
2023/10/13 09:07:07;;;;;;;1.10;0.60;;;;;;;-143.84;33.50;44965.28;5070107;28;20441;-56
2023/10/13 09:09:59;;;;;;;0.97;0.67;;;;;;;-143.84;33.17;44965.28;5069955;28;20498;-56
2023/10/13 09:12:35;;;;;;;1.00;0.70;;;;;;;-143.84;33.60;44950.06;5070163;28;20444;-56
2023/10/13 09:15:05;;;;;;;1.17;0.90;;;;;;;-143.84;34.88;44974.81;5070200;28;20486;-56
2023/10/13 09:17:35;;;;;;;0.90;0.53;;;;;;;-143.84;34.45;45024.31;5070302;28;20494;-56
2023/10/13 09:23:12;;;;;;;1.07;0.83;;;;;;;-143.84;35.55;44967.19;5107790;27;20534;-58
2023/10/13 09:25:53;;;;;;;1.93;0.67;;;;;;;-143.84;35.10;44969.09;5107304;28;20496;-58
2023/10/13 09:28:24;;;;;;;1.20;0.97;;;;;;;-143.84;34.05;44974.81;5107478;28;20960;-58
2023/10/13 09:30:52;;;;;;;0.90;0.50;;;;;;;-143.84;34.80;44971.00;5107493;28;20443;-58
2023/10/13 09:33:28;;;;;;;0.83;0.40;;;;;;;-143.84;35.08;44969.09;5107423;28;20478;-58
2023/10/13 09:35:54;;;;;;;0.97;0.50;;;;;;;-143.84;34.69;44976.72;5107108;28;20467;-58
2023/10/13 09:38:23;;;;;;;1.50;0.80;;;;;;;-143.84;35.80;44995.75;5107351;28;20632;-58
2023/10/13 09:40:50;;;;;;;0.80;0.43;;;;;;;-143.84;35.54;44980.53;5107110;28;20446;-58
2023/10/13 09:43:20;;;;;;;2.00;0.40;;;;;;;-143.84;34.22;44969.09;5107076;28;20975;-58
2023/10/13 09:48:34;;;;;;;0.80;0.40;;;;;;;-143.84;35.21;44993.84;5107006;28;20496;-58
2023/10/13 09:51:04;;;;;;;1.10;0.70;;;;;;;-143.84;34.01;44995.75;5107283;28;20431;-58
2023/10/13 09:53:34;;;;;;;0.80;0.40;;;;;;;-143.84;34.26;45001.47;5107347;28;20472;-58
2023/10/13 09:56:11;;;;;;;1.00;0.70;;;;;;;-143.84;33.34;44976.72;5107175;28;20450;-58
2023/10/13 09:58:47;;;;;;;0.90;0.50;;;;;;;-143.84;33.43;44976.72;5107006;28;20447;-58
2023/10/13 10:01:20;;;;;;;0.80;0.40;;;;;;;-143.84;32.89;44963.38;5107022;28;20893;-58
2023/10/13 10:04:04;;;;;;;0.90;0.67;;;;;;;-143.84;34.10;44955.75;5106937;28;21081;-58
2023/10/13 10:06:43;;;;;;;0.90;0.40;;;;;;;-143.84;33.60;44982.41;5107083;28;20438;-58
2023/10/13 10:09:12;;;;;;;0.90;0.50;;;;;;;-143.84;33.40;44980.53;5106869;28;20998;-58
2023/10/13 10:12:10;;;;;;;1.37;1.00;;;;;;;-143.84;33.31;44961.47;5106864;28;20851;-63
2023/10/13 10:15:01;;;;;;;0.80;0.40;;;;;;;-143.84;33.97;44950.06;5107043;28;20555;-62
2023/10/13 10:17:33;;;;;;;0.90;0.60;;;;;;;-143.84;35.50;44991.94;5106689;28;20443;-62
2023/10/13 10:20:06;;;;;;;0.80;0.40;;;;;;;-143.84;35.48;44976.72;5107041;28;20439;-62
2023/10/13 10:22:36;;;;;;;1.00;0.40;;;;;;;-143.84;35.81;44951.97;5106271;28;20818;-63
2023/10/13 10:25:21;;;;;;;0.80;0.40;;;;;;;-143.84;38.01;44980.53;5106620;28;20528;-62
2023/10/13 10:27:56;;;;;;;1.53;0.93;;;;;;;-143.84;39.86;44986.22;5106572;28;20455;-62
2023/10/13 10:30:26;;;;;;;0.90;0.63;;;;;;;-143.84;39.51;45016.69;5106381;28;20443;-62
2023/10/13 10:32:59;;;;;;;0.87;0.53;;;;;;;-143.84;40.00;44986.22;5101273;28;20938;-63
2023/10/13 10:35:29;;;;;;;1.50;0.80;;;;;;;-143.84;40.17;45001.47;5092898;28;20444;-63
2023/10/13 10:38:11;;;;;;;1.23;0.67;;;;;;;-143.84;40.28;44984.31;5092794;28;20455;-63
2023/10/13 10:40:52;;;;;;;1.10;0.73;;;;;;;-143.84;41.08;45003.38;5092946;28;20451;-62
2023/10/13 10:43:20;;;;;;;0.93;0.47;;;;;;;-143.84;38.85;45010.97;5093149;28;20524;-62
2023/10/13 10:45:50;;;;;;;1.20;0.63;;;;;;;-143.84;38.29;44988.13;5092992;28;20941;-62
2023/10/13 10:48:18;;;;;;;1.30;0.63;;;;;;;-143.84;38.94;45001.47;5092754;28;20451;-62
2023/10/13 10:50:53;;;;;;;1.33;1.23;;;;;;;-143.84;38.50;44980.53;5092611;28;20448;-62
2023/10/13 10:53:22;;;;;;;0.87;0.57;;;;;;;-143.84;38.33;45001.47;5092683;28;20840;-63
2023/10/13 10:55:51;;;;;;;1.20;1.10;;;;;;;-143.84;37.40;45003.38;5092764;28;21016;-62
2023/10/13 10:58:29;;;;;;;0.90;0.53;;;;;;;-143.84;36.93;45007.19;5092268;28;20444;-62
2023/10/13 11:01:12;;;;;;;0.80;0.40;;;;;;;-143.84;36.99;45009.09;5092553;28;20439;-62
2023/10/13 11:03:41;;;;;;;1.10;0.73;;;;;;;-143.84;36.96;44969.09;5090465;28;20543;-62
2023/10/13 11:06:18;;;;;;;0.80;0.40;;;;;;;-143.84;37.89;44978.63;5092283;28;20440;-63
2023/10/13 11:08:51;;;;;;;0.80;0.50;;;;;;;-143.84;37.55;44971.00;5092398;28;20828;-62
2023/10/13 11:11:34;;;;;;;0.80;0.40;;;;;;;-143.84;37.75;44971.00;5092266;28;20448;-62
2023/10/13 11:14:13;;;;;;;1.00;0.53;;;;;;;-143.84;38.92;44988.13;5092108;28;20448;-62
2023/10/13 11:16:50;;;;;;;1.17;0.57;;;;;;;-143.84;39.30;44990.03;5092089;28;20983;-62
2023/10/13 11:19:25;;;;;;;2.80;0.60;;;;;;;-143.84;38.75;44976.72;5092250;28;20522;-62
2023/10/13 11:21:54;;;;;;;0.90;0.40;;;;;;;-143.84;39.00;45007.19;5091866;28;20491;-62
2023/10/13 11:24:21;;;;;;;1.00;0.70;;;;;;;-143.84;38.60;44986.22;5091869;28;20432;-62
2023/10/13 11:26:51;;;;;;;1.00;0.53;;;;;;;-143.84;38.20;44990.03;5091922;28;20530;-62
2023/10/13 11:29:22;;;;;;;1.00;0.50;;;;;;;-143.84;39.56;44988.13;5091975;28;20545;-62
2023/10/13 11:31:58;;;;;;;0.80;0.40;;;;;;;-143.84;38.85;44988.13;5091863;28;20446;-62
2023/10/13 11:34:25;;;;;;;0.80;0.40;;;;;;;-143.84;38.07;44991.94;5091851;28;20438;-62
2023/10/13 11:36:52;;;;;;;0.90;0.50;;;;;;;-143.84;38.61;44995.75;5091908;28;20480;-62
2023/10/13 11:39:24;;;;;;;1.47;0.70;;;;;;;-143.84;37.58;45003.38;5091846;28;20485;-62
2023/10/13 11:41:54;;;;;;;1.13;0.60;;;;;;;-143.84;39.56;45007.19;5091611;28;20571;-62
2023/10/13 11:44:30;;;;;;;0.90;0.50;;;;;;;-143.84;39.41;45003.38;5090604;28;21015;-62
2023/10/13 11:47:07;;;;;;;0.90;0.50;;;;;;;-143.84;38.69;45003.38;5091365;28;20435;-62
2023/10/13 11:49:38;;;;;;;1.30;0.70;;;;;;;-143.84;38.63;44990.03;5091605;28;20444;-62
2023/10/13 11:54:46;;;;;;;0.90;0.60;;;;;;;-143.84;40.03;44988.13;5089280;28;20432;-62
2023/10/13 11:57:19;;;;;;;0.90;0.50;;;;;;;-143.84;40.64;45009.09;5091324;28;20938;-62
2023/10/13 11:59:52;;;;;;;0.87;0.50;;;;;;;-143.84;40.86;45005.28;5091143;28;20451;-62
2023/10/13 12:05:12;;;;;;;0.90;0.40;;;;;;;-143.84;40.10;44999.56;5091069;28;20490;-62
2023/10/13 12:07:52;;;;;;;1.00;0.50;;;;;;;-143.84;40.63;45018.59;5091279;28;20507;-62
2023/10/13 12:10:38;;;;;;;0.87;0.50;;;;;;;-143.84;40.84;44999.56;5090785;28;20485;-62
2023/10/13 12:13:09;;;;;;;0.80;0.43;;;;;;;-143.84;39.99;45001.47;5090862;28;20435;-62
2023/10/13 12:15:51;;;;;;;0.80;0.40;;;;;;;-143.84;40.06;45009.09;5091133;28;20444;-62
2023/10/13 12:18:19;;;;;;;0.80;0.50;;;;;;;-143.84;39.29;45007.19;5090847;28;20886;-63
2023/10/13 12:20:46;;;;;;;1.00;0.60;;;;;;;-143.84;38.95;45010.97;5090420;28;20443;-63
2023/10/13 12:23:20;;;;;;;1.47;0.50;;;;;;;-143.84;39.92;44991.94;5090676;28;20836;-63
2023/10/13 12:25:59;;;;;;;0.80;0.40;;;;;;;-143.84;40.11;44993.84;5090586;28;20910;-63
2023/10/13 12:28:28;;;;;;;1.10;0.80;;;;;;;-143.84;41.42;45018.59;5090772;28;20447;-63
2023/10/13 12:31:08;;;;;;;0.90;0.60;;;;;;;-143.84;40.91;45003.38;5090660;28;20483;-63
2023/10/13 12:33:40;;;;;;;0.90;0.70;;;;;;;-143.84;40.65;45014.78;5090792;28;20560;-63
2023/10/13 12:36:09;;;;;;;0.80;0.50;;;;;;;-143.84;42.88;45028.13;5090556;28;20566;-63
2023/10/13 12:49:57;;;;;;;1.00;0.70;;;;;;;-143.84;44.67;45005.28;5090495;28;20577;-63
2023/10/13 12:52:26;;;;;;;0.90;0.53;;;;;;;-143.84;45.01;45007.19;5090231;28;20471;-63
2023/10/13 12:55:06;;;;;;;1.77;0.87;;;;;;;-143.84;45.45;44991.94;5090184;28;20431;-63
2023/10/13 12:57:34;;;;;;;0.80;0.40;;;;;;;-143.84;45.01;45003.38;5090066;28;20925;-62
2023/10/13 13:00:16;;;;;;;0.80;0.43;;;;;;;-143.84;45.21;45010.97;5090260;28;20871;-62
2023/10/13 13:02:43;;;;;;;0.90;0.80;;;;;;;-143.84;45.55;45001.47;5089955;28;20491;-62
2023/10/13 13:05:13;;;;;;;0.80;0.40;;;;;;;-143.84;46.14;45001.47;5089924;28;20444;-62
2023/10/13 13:07:46;;;;;;;1.10;0.63;;;;;;;-143.84;45.81;45031.94;5090086;28;20432;-62
2023/10/13 13:10:14;;;;;;;1.00;0.70;;;;;;;-143.84;47.01;45014.78;5089982;28;20910;-62
2023/10/13 13:12:41;;;;;;;2.60;0.40;;;;;;;-143.84;45.58;45010.97;5089944;28;20444;-61
2023/10/13 13:15:11;;;;;;;0.90;0.50;;;;;;;-143.84;45.72;44993.84;5090191;28;20856;-62
2023/10/13 13:17:39;;;;;;;1.13;0.60;;;;;;;-143.84;44.55;45018.59;5090121;28;20440;-62
2023/10/13 13:20:25;;;;;;;1.80;0.90;;;;;;;-143.84;45.33;44999.56;5090067;28;20810;-62
2023/10/13 13:22:53;;;;;;;1.07;0.97;;;;;;;-143.84;45.52;45001.47;5089619;28;21046;-62
2023/10/13 13:25:25;;;;;;;0.90;0.60;;;;;;;-143.84;45.89;44995.75;5089946;28;20444;-62
2023/10/13 13:27:53;;;;;;;0.90;0.50;;;;;;;-143.84;46.03;45014.78;5090039;28;20439;-62
2023/10/13 13:30:22;;;;;;;1.00;0.50;;;;;;;-143.84;45.69;45010.97;5089802;28;20535;-62
2023/10/13 13:32:50;;;;;;;0.97;0.80;;;;;;;-143.84;46.18;45031.94;5089982;28;20524;-62
2023/10/13 13:35:18;;;;;;;1.73;1.07;;;;;;;-143.84;46.26;45010.97;5089844;28;20468;-62
2023/10/13 13:37:45;;;;;;;0.90;0.60;;;;;;;-143.84;45.95;45009.09;5089793;28;21049;-62
2023/10/13 13:40:21;;;;;;;1.10;0.50;;;;;;;-143.84;45.43;45005.28;5090097;28;20440;-62
2023/10/13 13:42:48;;;;;;;1.00;0.80;;;;;;;-143.84;44.00;45020.50;5089820;28;20536;-62
2023/10/13 13:45:27;;;;;;;2.77;0.80;;;;;;;-143.84;45.52;45003.38;5089896;28;20493;-61
2023/10/13 13:47:56;;;;;;;0.90;0.50;;;;;;;-143.84;46.92;45009.09;5089734;28;20501;-62
2023/10/13 13:50:29;;;;;;;0.80;0.40;;;;;;;-143.84;47.33;45003.38;5089969;28;20926;-61